sensor_id;sensor_type;location;lat;lon;timestamp;pressure;altitude;pressure_sealevel;temperature;humidity
57498;BME280;43336;51.416;-0.810;2023-04-26T00:02:51;101241.31;;;10.81;63.74
57498;BME280;43336;51.416;-0.810;2023-04-26T00:05:52;101270.09;;;10.98;63.15
57498;BME280;43336;51.416;-0.810;2023-04-26T00:08:53;101273.75;;;10.94;63.35
57498;BME280;43336;51.416;-0.810;2023-04-26T00:11:54;101215.44;;;10.57;63.66
57498;BME280;43336;51.416;-0.810;2023-04-26T00:14:54;101222.63;;;10.71;63.58
57498;BME280;43336;51.416;-0.810;2023-04-26T00:17:55;101196.59;;;10.50;63.38
57498;BME280;43336;51.416;-0.810;2023-04-26T00:20:56;101200.97;;;10.50;63.27
57498;BME280;43336;51.416;-0.810;2023-04-26T00:23:57;101255.06;;;10.84;63.46
57498;BME280;43336;51.416;-0.810;2023-04-26T00:26:58;101240.94;;;10.69;63.41
57498;BME280;43336;51.416;-0.810;2023-04-26T00:30:00;101239.97;;;10.72;63.01
57498;BME280;43336;51.416;-0.810;2023-04-26T00:33:00;101238.63;;;10.63;63.31
57498;BME280;43336;51.416;-0.810;2023-04-26T00:36:01;101248.66;;;10.72;63.09
57498;BME280;43336;51.416;-0.810;2023-04-26T00:39:02;101235.94;;;10.65;63.65
57498;BME280;43336;51.416;-0.810;2023-04-26T00:42:03;101148.50;;;10.17;63.23
57498;BME280;43336;51.416;-0.810;2023-04-26T00:45:05;101254.13;;;10.66;63.11
57498;BME280;43336;51.416;-0.810;2023-04-26T00:48:06;101225.34;;;10.49;63.35
57498;BME280;43336;51.416;-0.810;2023-04-26T00:51:07;101221.41;;;10.40;63.24
57498;BME280;43336;51.416;-0.810;2023-04-26T00:54:09;101244.97;;;10.58;63.46
57498;BME280;43336;51.416;-0.810;2023-04-26T00:57:11;101202.06;;;10.25;62.96
57498;BME280;43336;51.416;-0.810;2023-04-26T01:00:12;101199.31;;;10.29;63.20
57498;BME280;43336;51.416;-0.810;2023-04-26T01:03:13;101224.44;;;10.50;62.91
57498;BME280;43336;51.416;-0.810;2023-04-26T01:06:14;101185.41;;;10.28;63.18
57498;BME280;43336;51.416;-0.810;2023-04-26T01:09:14;101191.34;;;10.32;62.68
57498;BME280;43336;51.416;-0.810;2023-04-26T01:12:18;101198.44;;;10.28;62.55
57498;BME280;43336;51.416;-0.810;2023-04-26T01:15:18;101204.06;;;10.39;62.72
57498;BME280;43336;51.416;-0.810;2023-04-26T01:18:19;101159.63;;;10.01;62.70
57498;BME280;43336;51.416;-0.810;2023-04-26T01:21:21;101205.97;;;10.36;62.37
57498;BME280;43336;51.416;-0.810;2023-04-26T01:24:22;101182.53;;;10.14;62.75
57498;BME280;43336;51.416;-0.810;2023-04-26T01:27:23;101162.09;;;10.04;62.37
57498;BME280;43336;51.416;-0.810;2023-04-26T01:30:24;100959.69;;;8.87;62.09
57498;BME280;43336;51.416;-0.810;2023-04-26T01:33:25;101182.94;;;10.25;61.78
57498;BME280;43336;51.416;-0.810;2023-04-26T01:36:26;101168.03;;;10.08;62.60
57498;BME280;43336;51.416;-0.810;2023-04-26T01:39:26;101178.59;;;10.05;62.05
57498;BME280;43336;51.416;-0.810;2023-04-26T01:42:27;101190.50;;;10.11;62.39
57498;BME280;43336;51.416;-0.810;2023-04-26T01:45:28;101164.84;;;10.01;62.13
57498;BME280;43336;51.416;-0.810;2023-04-26T01:48:30;101150.84;;;9.84;62.05
57498;BME280;43336;51.416;-0.810;2023-04-26T01:51:31;101179.81;;;9.96;62.08
57498;BME280;43336;51.416;-0.810;2023-04-26T01:54:32;101195.19;;;10.02;62.21
57498;BME280;43336;51.416;-0.810;2023-04-26T01:57:32;101165.44;;;9.88;62.41
57498;BME280;43336;51.416;-0.810;2023-04-26T02:00:34;101144.00;;;9.81;61.90
57498;BME280;43336;51.416;-0.810;2023-04-26T02:03:35;101190.81;;;10.03;62.15
57498;BME280;43336;51.416;-0.810;2023-04-26T02:06:36;101194.47;;;9.99;62.45
57498;BME280;43336;51.416;-0.810;2023-04-26T02:09:37;101113.41;;;9.45;62.23
57498;BME280;43336;51.416;-0.810;2023-04-26T02:12:38;101018.06;;;8.80;62.45
57498;BME280;43336;51.416;-0.810;2023-04-26T02:15:38;101193.44;;;9.83;62.09
57498;BME280;43336;51.416;-0.810;2023-04-26T02:18:39;101208.81;;;9.89;62.39
57498;BME280;43336;51.416;-0.810;2023-04-26T02:21:54;101205.56;;;9.84;62.51
57498;BME280;43336;51.416;-0.810;2023-04-26T02:24:56;101169.13;;;9.62;62.02
57498;BME280;43336;51.416;-0.810;2023-04-26T02:27:57;101202.38;;;9.77;62.41
57498;BME280;43336;51.416;-0.810;2023-04-26T02:30:58;101185.63;;;9.62;62.22
57498;BME280;43336;51.416;-0.810;2023-04-26T02:33:59;101180.28;;;9.65;62.18
57498;BME280;43336;51.416;-0.810;2023-04-26T02:36:59;101151.41;;;9.49;62.38
57498;BME280;43336;51.416;-0.810;2023-04-26T02:40:00;101139.03;;;9.34;61.96
57498;BME280;43336;51.416;-0.810;2023-04-26T02:43:01;101150.56;;;9.49;62.14
57498;BME280;43336;51.416;-0.810;2023-04-26T02:46:06;101093.06;;;9.13;62.17
57498;BME280;43336;51.416;-0.810;2023-04-26T02:49:07;101187.56;;;9.57;62.19
57498;BME280;43336;51.416;-0.810;2023-04-26T02:52:07;101157.91;;;9.39;62.22
57498;BME280;43336;51.416;-0.810;2023-04-26T02:55:08;101152.81;;;9.36;62.60
57498;BME280;43336;51.416;-0.810;2023-04-26T02:58:09;101147.03;;;9.29;63.02
57498;BME280;43336;51.416;-0.810;2023-04-26T03:01:10;101181.94;;;9.46;62.59
57498;BME280;43336;51.416;-0.810;2023-04-26T03:04:11;101153.94;;;9.30;62.30
57498;BME280;43336;51.416;-0.810;2023-04-26T03:07:13;101180.19;;;9.46;62.49
57498;BME280;43336;51.416;-0.810;2023-04-26T03:10:13;101164.97;;;9.37;62.41
57498;BME280;43336;51.416;-0.810;2023-04-26T03:13:14;101182.66;;;9.49;63.00
57498;BME280;43336;51.416;-0.810;2023-04-26T03:16:18;101075.06;;;8.86;62.77
57498;BME280;43336;51.416;-0.810;2023-04-26T03:19:19;101116.63;;;9.10;62.96
57498;BME280;43336;51.416;-0.810;2023-04-26T03:22:20;101158.88;;;9.37;62.46
57498;BME280;43336;51.416;-0.810;2023-04-26T03:25:21;101165.97;;;9.33;62.78
57498;BME280;43336;51.416;-0.810;2023-04-26T03:28:23;101189.75;;;9.46;62.74
57498;BME280;43336;51.416;-0.810;2023-04-26T03:31:24;101167.56;;;9.37;62.44
57498;BME280;43336;51.416;-0.810;2023-04-26T03:34:24;101165.81;;;9.38;62.68
57498;BME280;43336;51.416;-0.810;2023-04-26T03:37:26;101178.63;;;9.42;62.38
57498;BME280;43336;51.416;-0.810;2023-04-26T03:40:27;101088.19;;;8.83;62.79
57498;BME280;43336;51.416;-0.810;2023-04-26T03:43:28;101112.00;;;8.94;62.84
57498;BME280;43336;51.416;-0.810;2023-04-26T03:46:28;101152.66;;;9.19;62.73
57498;BME280;43336;51.416;-0.810;2023-04-26T03:49:29;101151.69;;;9.21;62.27
57498;BME280;43336;51.416;-0.810;2023-04-26T03:52:30;101121.81;;;9.10;62.74
57498;BME280;43336;51.416;-0.810;2023-04-26T03:55:31;101083.81;;;8.83;62.65
57498;BME280;43336;51.416;-0.810;2023-04-26T03:58:32;101122.78;;;9.07;62.57
57498;BME280;43336;51.416;-0.810;2023-04-26T04:01:33;101093.06;;;8.91;62.81
57498;BME280;43336;51.416;-0.810;2023-04-26T04:04:33;101116.13;;;9.00;62.70
57498;BME280;43336;51.416;-0.810;2023-04-26T04:07:34;101037.03;;;8.62;62.44
57498;BME280;43336;51.416;-0.810;2023-04-26T04:10:35;101090.06;;;8.79;62.92
57498;BME280;43336;51.416;-0.810;2023-04-26T04:13:37;101116.91;;;9.02;62.95
57498;BME280;43336;51.416;-0.810;2023-04-26T04:16:38;101152.03;;;9.14;62.65
57498;BME280;43336;51.416;-0.810;2023-04-26T04:19:39;101090.66;;;8.86;62.51
57498;BME280;43336;51.416;-0.810;2023-04-26T04:22:40;101134.03;;;9.07;62.66
57498;BME280;43336;51.416;-0.810;2023-04-26T04:25:41;101124.91;;;8.97;62.70
57498;BME280;43336;51.416;-0.810;2023-04-26T04:28:43;101111.28;;;8.91;62.64
57498;BME280;43336;51.416;-0.810;2023-04-26T04:31:46;101077.38;;;8.72;62.71
57498;BME280;43336;51.416;-0.810;2023-04-26T04:34:47;101117.28;;;8.93;62.99
57498;BME280;43336;51.416;-0.810;2023-04-26T04:37:47;101102.94;;;8.82;62.70
57498;BME280;43336;51.416;-0.810;2023-04-26T04:40:49;101136.22;;;8.96;63.07
57498;BME280;43336;51.416;-0.810;2023-04-26T04:43:50;101130.19;;;8.96;63.08
57498;BME280;43336;51.416;-0.810;2023-04-26T04:46:52;101091.41;;;8.68;62.75
57498;BME280;43336;51.416;-0.810;2023-04-26T04:49:53;101086.09;;;8.71;63.06
57498;BME280;43336;51.416;-0.810;2023-04-26T04:52:54;101130.34;;;8.91;63.12
57498;BME280;43336;51.416;-0.810;2023-04-26T04:55:55;101042.03;;;8.44;63.23
57498;BME280;43336;51.416;-0.810;2023-04-26T04:58:56;101092.06;;;8.73;63.03
57498;BME280;43336;51.416;-0.810;2023-04-26T05:01:57;101098.63;;;8.59;62.92
57498;BME280;43336;51.416;-0.810;2023-04-26T05:04:59;101060.31;;;8.43;62.85
57498;BME280;43336;51.416;-0.810;2023-04-26T05:08:00;101103.38;;;8.72;63.10
57498;BME280;43336;51.416;-0.810;2023-04-26T05:11:01;100957.19;;;7.74;63.09
57498;BME280;43336;51.416;-0.810;2023-04-26T05:14:04;101115.34;;;8.76;62.75
57498;BME280;43336;51.416;-0.810;2023-04-26T05:17:05;101115.47;;;8.73;63.33
57498;BME280;43336;51.416;-0.810;2023-04-26T05:20:07;101090.22;;;8.53;63.03
57498;BME280;43336;51.416;-0.810;2023-04-26T05:23:07;101135.25;;;8.77;63.09
57498;BME280;43336;51.416;-0.810;2023-04-26T05:26:14;101144.66;;;8.81;63.02
57498;BME280;43336;51.416;-0.810;2023-04-26T05:29:15;101124.91;;;8.53;63.38
57498;BME280;43336;51.416;-0.810;2023-04-26T05:32:16;101078.66;;;8.38;63.50
57498;BME280;43336;51.416;-0.810;2023-04-26T05:35:17;101122.00;;;8.61;62.93
57498;BME280;43336;51.416;-0.810;2023-04-26T05:38:19;101077.84;;;8.36;63.21
57498;BME280;43336;51.416;-0.810;2023-04-26T05:41:21;101060.72;;;8.30;63.18
57498;BME280;43336;51.416;-0.810;2023-04-26T05:44:22;101038.09;;;8.10;62.77
57498;BME280;43336;51.416;-0.810;2023-04-26T05:47:22;101083.56;;;8.46;62.59
57498;BME280;43336;51.416;-0.810;2023-04-26T05:50:24;101131.59;;;8.59;62.70
57498;BME280;43336;51.416;-0.810;2023-04-26T05:53:24;101124.78;;;8.56;63.08
57498;BME280;43336;51.416;-0.810;2023-04-26T05:56:27;101123.97;;;8.54;62.74
57498;BME280;43336;51.416;-0.810;2023-04-26T05:59:27;101128.16;;;8.58;63.15
57498;BME280;43336;51.416;-0.810;2023-04-26T06:02:32;101128.22;;;8.57;63.15
57498;BME280;43336;51.416;-0.810;2023-04-26T06:05:33;101157.06;;;8.73;63.03
57498;BME280;43336;51.416;-0.810;2023-04-26T06:08:34;101141.03;;;8.62;63.31
57498;BME280;43336;51.416;-0.810;2023-04-26T06:11:34;101159.69;;;8.73;62.77
57498;BME280;43336;51.416;-0.810;2023-04-26T06:14:35;101097.00;;;8.33;63.14
57498;BME280;43336;51.416;-0.810;2023-04-26T06:17:36;101128.25;;;8.55;63.22
57498;BME280;43336;51.416;-0.810;2023-04-26T06:20:36;101143.88;;;8.55;63.24
57498;BME280;43336;51.416;-0.810;2023-04-26T06:23:37;101164.94;;;8.71;63.38
57498;BME280;43336;51.416;-0.810;2023-04-26T06:26:38;101103.97;;;8.33;63.38
57498;BME280;43336;51.416;-0.810;2023-04-26T06:29:38;101153.41;;;8.55;63.12
57498;BME280;43336;51.416;-0.810;2023-04-26T06:32:40;101121.69;;;8.47;63.29
57498;BME280;43336;51.416;-0.810;2023-04-26T06:35:41;101159.91;;;8.67;63.45
57498;BME280;43336;51.416;-0.810;2023-04-26T06:38:42;101119.00;;;8.48;63.44
57498;BME280;43336;51.416;-0.810;2023-04-26T06:41:43;101135.34;;;8.52;63.56
57498;BME280;43336;51.416;-0.810;2023-04-26T06:44:44;101134.16;;;8.60;63.63
57498;BME280;43336;51.416;-0.810;2023-04-26T06:47:44;101009.59;;;7.85;63.52
57498;BME280;43336;51.416;-0.810;2023-04-26T06:50:46;101048.47;;;8.10;63.60
57498;BME280;43336;51.416;-0.810;2023-04-26T06:53:47;101150.41;;;8.66;63.45
57498;BME280;43336;51.416;-0.810;2023-04-26T06:56:48;101069.84;;;8.19;63.54
57498;BME280;43336;51.416;-0.810;2023-04-26T06:59:48;101093.69;;;8.30;63.52
57498;BME280;43336;51.416;-0.810;2023-04-26T07:02:49;101095.25;;;8.34;63.33
57498;BME280;43336;51.416;-0.810;2023-04-26T07:05:50;101124.81;;;8.55;63.86
57498;BME280;43336;51.416;-0.810;2023-04-26T07:08:51;101145.91;;;8.71;63.01
57498;BME280;43336;51.416;-0.810;2023-04-26T07:11:51;101123.63;;;8.64;63.51
57498;BME280;43336;51.416;-0.810;2023-04-26T07:18:12;101048.16;;;8.20;63.24
57498;BME280;43336;51.416;-0.810;2023-04-26T07:21:14;100934.72;;;7.26;63.12
57498;BME280;43336;51.416;-0.810;2023-04-26T07:24:14;100994.13;;;7.82;63.54
57498;BME280;43336;51.416;-0.810;2023-04-26T07:27:17;101078.16;;;8.28;63.52
57498;BME280;43336;51.416;-0.810;2023-04-26T07:33:27;101157.31;;;8.67;62.99
57498;BME280;43336;51.416;-0.810;2023-04-26T07:36:28;101072.97;;;8.28;62.99
57498;BME280;43336;51.416;-0.810;2023-04-26T07:39:32;101134.16;;;8.60;62.81
57498;BME280;43336;51.416;-0.810;2023-04-26T07:45:44;101130.53;;;8.65;62.88
57498;BME280;43336;51.416;-0.810;2023-04-26T07:48:45;101024.16;;;7.89;63.37
57498;BME280;43336;51.416;-0.810;2023-04-26T07:51:47;101016.50;;;7.86;63.29
57498;BME280;43336;51.416;-0.810;2023-04-26T07:54:48;101047.00;;;8.03;63.26
57498;BME280;43336;51.416;-0.810;2023-04-26T07:57:49;101044.78;;;7.94;63.31
57498;BME280;43336;51.416;-0.810;2023-04-26T08:00:50;101137.09;;;8.51;63.52
57498;BME280;43336;51.416;-0.810;2023-04-26T08:03:50;100982.22;;;7.53;63.22
57498;BME280;43336;51.416;-0.810;2023-04-26T08:06:51;101093.59;;;8.31;62.73
57498;BME280;43336;51.416;-0.810;2023-04-26T08:09:52;101144.38;;;8.65;63.22
57498;BME280;43336;51.416;-0.810;2023-04-26T08:12:53;101042.50;;;8.08;63.03
57498;BME280;43336;51.416;-0.810;2023-04-26T08:15:55;101048.16;;;8.20;63.48
57498;BME280;43336;51.416;-0.810;2023-04-26T08:18:56;101079.63;;;8.35;63.07
57498;BME280;43336;51.416;-0.810;2023-04-26T08:22:02;101057.88;;;8.15;63.45
57498;BME280;43336;51.416;-0.810;2023-04-26T08:25:03;101137.81;;;8.55;63.50
57498;BME280;43336;51.416;-0.810;2023-04-26T08:28:04;101121.19;;;8.59;63.68
57498;BME280;43336;51.416;-0.810;2023-04-26T08:31:07;101148.75;;;8.87;63.18
57498;BME280;43336;51.416;-0.810;2023-04-26T08:34:09;100963.59;;;7.65;63.40
57498;BME280;43336;51.416;-0.810;2023-04-26T08:37:11;101153.75;;;8.91;63.26
57498;BME280;43336;51.416;-0.810;2023-04-26T08:40:12;101120.00;;;8.68;63.45
57498;BME280;43336;51.416;-0.810;2023-04-26T08:43:14;101151.88;;;8.95;63.23
57498;BME280;43336;51.416;-0.810;2023-04-26T08:46:18;100996.59;;;8.09;62.81
57498;BME280;43336;51.416;-0.810;2023-04-26T08:49:29;101108.47;;;8.75;63.00
57498;BME280;43336;51.416;-0.810;2023-04-26T08:52:31;101088.22;;;8.59;62.91
57498;BME280;43336;51.416;-0.810;2023-04-26T08:55:34;101151.59;;;9.02;62.75
57498;BME280;43336;51.416;-0.810;2023-04-26T08:58:36;101075.31;;;8.58;62.78
57498;BME280;43336;51.416;-0.810;2023-04-26T09:01:42;101106.41;;;8.83;62.25
57498;BME280;43336;51.416;-0.810;2023-04-26T09:04:44;100993.91;;;8.10;62.44
57498;BME280;43336;51.416;-0.810;2023-04-26T09:07:48;101164.22;;;9.12;63.34
57498;BME280;43336;51.416;-0.810;2023-04-26T09:10:49;101150.19;;;9.16;62.30
57498;BME280;43336;51.416;-0.810;2023-04-26T09:13:49;101075.69;;;8.71;63.09
57498;BME280;43336;51.416;-0.810;2023-04-26T09:16:51;101106.88;;;8.93;63.48
57498;BME280;43336;51.416;-0.810;2023-04-26T09:19:52;101074.69;;;8.73;62.25
57498;BME280;43336;51.416;-0.810;2023-04-26T09:23:03;101145.03;;;9.36;62.52
57498;BME280;43336;51.416;-0.810;2023-04-26T09:26:18;101074.38;;;9.03;62.55
57498;BME280;43336;51.416;-0.810;2023-04-26T09:29:19;101102.03;;;9.26;62.38
57498;BME280;43336;51.416;-0.810;2023-04-26T09:32:21;101157.09;;;9.59;62.91
57498;BME280;43336;51.416;-0.810;2023-04-26T09:38:42;100954.72;;;8.60;63.18
57498;BME280;43336;51.416;-0.810;2023-04-26T09:41:43;101113.78;;;9.56;63.05
57498;BME280;43336;51.416;-0.810;2023-04-26T09:44:44;101117.69;;;9.67;63.39
57498;BME280;43336;51.416;-0.810;2023-04-26T09:47:47;101107.78;;;9.54;63.42
57498;BME280;43336;51.416;-0.810;2023-04-26T09:50:52;101122.56;;;9.74;62.79
57498;BME280;43336;51.416;-0.810;2023-04-26T09:53:54;101108.00;;;9.70;63.18
57498;BME280;43336;51.416;-0.810;2023-04-26T09:56:58;101050.41;;;9.37;62.82
57498;BME280;43336;51.416;-0.810;2023-04-26T10:00:05;101131.22;;;9.95;62.83
57498;BME280;43336;51.416;-0.810;2023-04-26T10:03:08;101076.81;;;9.69;62.98
57498;BME280;43336;51.416;-0.810;2023-04-26T10:06:10;101074.97;;;9.71;62.80
57498;BME280;43336;51.416;-0.810;2023-04-26T10:09:11;101105.38;;;9.91;63.64
57498;BME280;43336;51.416;-0.810;2023-04-26T10:12:14;101176.22;;;10.19;63.18
57498;BME280;43336;51.416;-0.810;2023-04-26T10:15:16;101144.34;;;10.13;63.33
57498;BME280;43336;51.416;-0.810;2023-04-26T10:18:18;101129.91;;;10.26;62.91
57498;BME280;43336;51.416;-0.810;2023-04-26T10:21:26;101094.34;;;10.04;63.24
57498;BME280;43336;51.416;-0.810;2023-04-26T10:24:28;101098.91;;;9.99;63.37
57498;BME280;43336;51.416;-0.810;2023-04-26T10:30:57;101133.00;;;10.34;63.57
57498;BME280;43336;51.416;-0.810;2023-04-26T10:34:17;101095.44;;;10.18;63.48
57498;BME280;43336;51.416;-0.810;2023-04-26T10:37:19;101043.19;;;9.83;63.63
57498;BME280;43336;51.416;-0.810;2023-04-26T10:40:24;101120.53;;;10.41;63.23
57498;BME280;43336;51.416;-0.810;2023-04-26T10:43:29;101112.63;;;10.42;63.54
57498;BME280;43336;51.416;-0.810;2023-04-26T10:46:38;101064.59;;;10.09;63.65
57498;BME280;43336;51.416;-0.810;2023-04-26T10:49:44;101119.41;;;10.46;63.45
57498;BME280;43336;51.416;-0.810;2023-04-26T10:55:55;101092.41;;;10.29;63.52
57498;BME280;43336;51.416;-0.810;2023-04-26T11:02:09;101027.47;;;10.03;64.32
57498;BME280;43336;51.416;-0.810;2023-04-26T11:08:34;101034.09;;;10.11;64.14
57498;BME280;43336;51.416;-0.810;2023-04-26T11:11:50;101079.63;;;10.41;63.88
57498;BME280;43336;51.416;-0.810;2023-04-26T11:14:53;101082.94;;;10.45;63.86
57498;BME280;43336;51.416;-0.810;2023-04-26T11:17:55;101077.59;;;10.48;63.40
57498;BME280;43336;51.416;-0.810;2023-04-26T11:20:57;101100.28;;;10.65;63.93
57498;BME280;43336;51.416;-0.810;2023-04-26T11:23:58;101119.25;;;10.68;64.50
57498;BME280;43336;51.416;-0.810;2023-04-26T11:26:58;101105.38;;;10.68;63.89
57498;BME280;43336;51.416;-0.810;2023-04-26T11:30:03;101101.00;;;10.68;64.45
57498;BME280;43336;51.416;-0.810;2023-04-26T11:33:05;101105.03;;;10.57;64.22
57498;BME280;43336;51.416;-0.810;2023-04-26T11:36:06;100989.25;;;10.04;63.50
57498;BME280;43336;51.416;-0.810;2023-04-26T11:39:07;101086.13;;;10.51;64.30
57498;BME280;43336;51.416;-0.810;2023-04-26T11:42:09;101109.28;;;10.77;63.63
57498;BME280;43336;51.416;-0.810;2023-04-26T11:45:10;100999.22;;;10.13;63.81
57498;BME280;43336;51.416;-0.810;2023-04-26T11:48:12;101090.22;;;10.57;64.05
57498;BME280;43336;51.416;-0.810;2023-04-26T11:51:13;101067.72;;;10.55;64.35
57498;BME280;43336;51.416;-0.810;2023-04-26T11:54:31;101049.69;;;10.31;64.37
57498;BME280;43336;51.416;-0.810;2023-04-26T11:57:32;101101.28;;;10.62;64.60
57498;BME280;43336;51.416;-0.810;2023-04-26T12:00:33;101099.31;;;10.67;64.20
57498;BME280;43336;51.416;-0.810;2023-04-26T12:03:34;101102.63;;;10.71;63.96
57498;BME280;43336;51.416;-0.810;2023-04-26T12:06:42;101062.78;;;10.48;64.51
57498;BME280;43336;51.416;-0.810;2023-04-26T12:09:43;101072.84;;;10.56;64.12
57498;BME280;43336;51.416;-0.810;2023-04-26T12:12:48;101049.97;;;10.44;64.20
57498;BME280;43336;51.416;-0.810;2023-04-26T12:15:50;101047.22;;;10.47;64.25
57498;BME280;43336;51.416;-0.810;2023-04-26T12:18:53;101102.72;;;10.87;64.35
57498;BME280;43336;51.416;-0.810;2023-04-26T12:21:54;101057.06;;;10.59;63.75
57498;BME280;43336;51.416;-0.810;2023-04-26T12:25:04;101085.03;;;10.74;64.17
57498;BME280;43336;51.416;-0.810;2023-04-26T12:28:07;101077.41;;;10.70;64.73
57498;BME280;43336;51.416;-0.810;2023-04-26T12:31:11;101099.97;;;10.90;64.50
57498;BME280;43336;51.416;-0.810;2023-04-26T12:34:12;101047.22;;;10.47;64.57
57498;BME280;43336;51.416;-0.810;2023-04-26T12:37:13;100948.25;;;9.89;64.55
57498;BME280;43336;51.416;-0.810;2023-04-26T12:40:14;101010.28;;;10.37;64.42
57498;BME280;43336;51.416;-0.810;2023-04-26T12:43:15;101071.16;;;10.74;65.00
57498;BME280;43336;51.416;-0.810;2023-04-26T12:46:16;100971.69;;;10.08;64.17
57498;BME280;43336;51.416;-0.810;2023-04-26T12:49:17;101019.66;;;10.41;64.52
57498;BME280;43336;51.416;-0.810;2023-04-26T12:52:17;101057.06;;;10.59;64.70
57498;BME280;43336;51.416;-0.810;2023-04-26T12:55:18;101069.78;;;10.84;64.59
57498;BME280;43336;51.416;-0.810;2023-04-26T12:58:19;101000.66;;;10.39;64.54
57498;BME280;43336;51.416;-0.810;2023-04-26T13:01:22;101075.78;;;10.86;63.95
57498;BME280;43336;51.416;-0.810;2023-04-26T13:04:22;101036.97;;;10.61;63.90
57498;BME280;43336;51.416;-0.810;2023-04-26T13:07:23;101021.56;;;10.57;63.12
57498;BME280;43336;51.416;-0.810;2023-04-26T13:10:23;101025.91;;;10.56;63.74
57498;BME280;43336;51.416;-0.810;2023-04-26T13:13:24;101057.78;;;10.80;64.40
57498;BME280;43336;51.416;-0.810;2023-04-26T13:16:25;101048.50;;;10.74;63.23
57498;BME280;43336;51.416;-0.810;2023-04-26T13:19:26;101051.03;;;10.76;61.64
57498;BME280;43336;51.416;-0.810;2023-04-26T13:22:26;101061.50;;;10.93;63.26
57498;BME280;43336;51.416;-0.810;2023-04-26T13:25:27;100991.94;;;10.58;63.68
57498;BME280;43336;51.416;-0.810;2023-04-26T13:28:28;101047.31;;;10.82;63.43
57498;BME280;43336;51.416;-0.810;2023-04-26T13:31:29;101020.50;;;10.78;63.76
57498;BME280;43336;51.416;-0.810;2023-04-26T13:34:30;101056.44;;;11.08;63.48
57498;BME280;43336;51.416;-0.810;2023-04-26T13:37:30;100993.94;;;10.70;63.51
57498;BME280;43336;51.416;-0.810;2023-04-26T13:40:32;100970.00;;;10.62;63.65
57498;BME280;43336;51.416;-0.810;2023-04-26T13:43:33;100988.50;;;10.74;63.99
57498;BME280;43336;51.416;-0.810;2023-04-26T13:46:33;101025.50;;;11.00;63.49
57498;BME280;43336;51.416;-0.810;2023-04-26T13:49:34;100920.41;;;10.44;63.66
57498;BME280;43336;51.416;-0.810;2023-04-26T13:52:35;100986.09;;;10.87;63.85
57498;BME280;43336;51.416;-0.810;2023-04-26T13:55:36;101043.84;;;11.33;64.11
57498;BME280;43336;51.416;-0.810;2023-04-26T13:58:37;100952.97;;;10.72;63.06
57498;BME280;43336;51.416;-0.810;2023-04-26T14:01:38;101034.34;;;11.15;63.54
57498;BME280;43336;51.416;-0.810;2023-04-26T14:04:39;101003.84;;;11.15;63.64
57498;BME280;43336;51.416;-0.810;2023-04-26T14:07:40;101014.66;;;11.25;63.54
57498;BME280;43336;51.416;-0.810;2023-04-26T14:10:41;100963.31;;;10.91;63.50
57498;BME280;43336;51.416;-0.810;2023-04-26T14:13:42;100971.00;;;10.94;64.07
57498;BME280;43336;51.416;-0.810;2023-04-26T14:16:42;100952.81;;;10.92;63.98
57498;BME280;43336;51.416;-0.810;2023-04-26T14:19:43;101023.72;;;11.35;63.83
57498;BME280;43336;51.416;-0.810;2023-04-26T14:22:44;101051.75;;;11.49;64.20
57498;BME280;43336;51.416;-0.810;2023-04-26T14:25:45;101003.22;;;11.28;64.19
57498;BME280;43336;51.416;-0.810;2023-04-26T14:28:46;100951.72;;;10.96;64.02
57498;BME280;43336;51.416;-0.810;2023-04-26T14:31:47;101005.75;;;11.29;64.55
57498;BME280;43336;51.416;-0.810;2023-04-26T14:34:48;101016.97;;;11.31;64.15
57498;BME280;43336;51.416;-0.810;2023-04-26T14:37:48;100926.31;;;10.83;64.51
57498;BME280;43336;51.416;-0.810;2023-04-26T14:40:49;101038.22;;;11.58;64.32
57498;BME280;43336;51.416;-0.810;2023-04-26T14:43:50;101046.91;;;11.59;64.75
57498;BME280;43336;51.416;-0.810;2023-04-26T14:46:51;101041.53;;;11.62;63.94
57498;BME280;43336;51.416;-0.810;2023-04-26T14:49:52;101000.38;;;11.32;64.45
57498;BME280;43336;51.416;-0.810;2023-04-26T14:52:53;101042.19;;;11.65;64.48
57498;BME280;43336;51.416;-0.810;2023-04-26T14:55:55;101020.66;;;11.44;64.93
57498;BME280;43336;51.416;-0.810;2023-04-26T14:58:56;101037.66;;;11.69;64.71
57498;BME280;43336;51.416;-0.810;2023-04-26T15:02:00;101028.00;;;11.54;64.60
57498;BME280;43336;51.416;-0.810;2023-04-26T15:05:01;100742.50;;;9.87;64.65
57498;BME280;43336;51.416;-0.810;2023-04-26T15:08:03;100996.13;;;11.47;64.94
57498;BME280;43336;51.416;-0.810;2023-04-26T15:11:04;101026.13;;;11.73;65.23
57498;BME280;43336;51.416;-0.810;2023-04-26T15:14:05;100948.25;;;11.13;64.68
57498;BME280;43336;51.416;-0.810;2023-04-26T15:17:05;101001.97;;;11.52;65.03
57498;BME280;43336;51.416;-0.810;2023-04-26T15:20:06;100957.84;;;11.30;64.93
57498;BME280;43336;51.416;-0.810;2023-04-26T15:23:09;101030.16;;;11.79;65.52
57498;BME280;43336;51.416;-0.810;2023-04-26T15:26:09;100817.41;;;10.53;65.34
57498;BME280;43336;51.416;-0.810;2023-04-26T15:29:11;100833.66;;;10.58;65.46
57498;BME280;43336;51.416;-0.810;2023-04-26T15:32:11;100926.53;;;11.13;65.48
57498;BME280;43336;51.416;-0.810;2023-04-26T15:35:12;101006.94;;;11.57;65.57
57498;BME280;43336;51.416;-0.810;2023-04-26T15:38:14;101012.94;;;11.75;65.34
57498;BME280;43336;51.416;-0.810;2023-04-26T15:41:15;101021.88;;;11.88;65.43
57498;BME280;43336;51.416;-0.810;2023-04-26T15:44:16;100934.09;;;11.35;65.17
57498;BME280;43336;51.416;-0.810;2023-04-26T15:47:17;100985.56;;;11.66;65.08
57498;BME280;43336;51.416;-0.810;2023-04-26T15:50:17;100910.47;;;11.20;65.34
57498;BME280;43336;51.416;-0.810;2023-04-26T15:53:19;101001.34;;;11.80;64.98
57498;BME280;43336;51.416;-0.810;2023-04-26T15:56:21;100972.56;;;11.64;65.01
57498;BME280;43336;51.416;-0.810;2023-04-26T15:59:21;100979.13;;;11.71;65.22
57498;BME280;43336;51.416;-0.810;2023-04-26T16:02:23;101004.69;;;11.82;65.54
57498;BME280;43336;51.416;-0.810;2023-04-26T16:05:23;100973.81;;;11.57;65.29
57498;BME280;43336;51.416;-0.810;2023-04-26T16:08:24;101010.56;;;11.87;65.53
57498;BME280;43336;51.416;-0.810;2023-04-26T16:11:25;100986.28;;;11.68;65.27